createdAt,value
2022-08-19T00:04:41.543Z,10.68
2022-08-19T00:09:44.368Z,10.71
2022-08-19T00:14:47.506Z,10.79
2022-08-19T00:19:50.269Z,10.79
2022-08-19T00:24:52.965Z,10.80
2022-08-19T00:29:55.734Z,10.84
2022-08-19T00:34:58.668Z,10.86
2022-08-19T00:40:01.569Z,10.96
2022-08-19T00:45:14.778Z,10.95
2022-08-19T00:50:20.926Z,10.91
2022-08-19T00:55:26.230Z,11.09
2022-08-19T01:00:29.898Z,11.17
2022-08-19T01:05:33.103Z,11.29
2022-08-19T01:10:39.574Z,11.37
2022-08-19T01:15:46.894Z,11.37
2022-08-19T01:20:49.759Z,11.54
2022-08-19T01:25:53.690Z,11.61
2022-08-19T01:30:57.202Z,11.67
2022-08-19T01:36:16.257Z,11.70
2022-08-19T01:41:19.174Z,11.62
2022-08-19T01:46:24.997Z,11.71
2022-08-19T01:51:28.700Z,11.87
2022-08-19T01:56:31.524Z,11.90
2022-08-19T02:01:36.046Z,11.92
2022-08-19T02:06:40.696Z,12.04
2022-08-19T02:11:43.573Z,12.08
2022-08-19T02:16:46.548Z,12.17
2022-08-19T02:21:49.377Z,12.08
2022-08-19T02:26:52.652Z,12.04
2022-08-19T02:31:55.489Z,12.10
2022-08-19T02:37:03.110Z,12.28
2022-08-19T02:42:07.145Z,12.47
2022-08-19T02:47:11.510Z,12.63
2022-08-19T02:52:14.346Z,12.78
2022-08-19T02:57:19.506Z,12.91
2022-08-19T03:02:31.355Z,12.90
2022-08-19T03:07:36.456Z,12.94
2022-08-19T03:12:42.161Z,13.07
2022-08-19T03:17:44.915Z,13.29
2022-08-19T03:22:47.753Z,13.48
2022-08-19T03:27:50.606Z,13.74
2022-08-19T03:32:57.324Z,13.98
2022-08-19T03:38:00.967Z,14.01
2022-08-19T03:43:04.065Z,14.55
2022-08-19T03:48:09.878Z,14.87
2022-08-19T03:53:14.718Z,14.92
2022-08-19T03:58:17.449Z,14.80
2022-08-19T04:03:20.676Z,14.51
2022-08-19T04:08:23.840Z,14.38
2022-08-19T04:13:26.712Z,14.11
2022-08-19T04:18:35.969Z,13.76
2022-08-19T04:23:45.606Z,13.51
2022-08-19T04:28:49.224Z,13.46
2022-08-19T04:33:52.025Z,13.61
2022-08-19T04:38:56.764Z,13.79
2022-08-19T04:44:04.149Z,13.96
2022-08-19T04:49:13.142Z,14.11
2022-08-19T04:54:23.922Z,14.07
2022-08-19T04:59:43.512Z,14.07
2022-08-19T05:04:46.266Z,14.09
2022-08-19T05:09:56.642Z,14.00
2022-08-19T05:15:07.246Z,13.80
2022-08-19T05:20:29.111Z,13.69
2022-08-19T05:25:32.721Z,13.57
2022-08-19T05:30:46.857Z,13.46
2022-08-19T05:35:50.760Z,13.45
2022-08-19T05:41:00.291Z,13.50
2022-08-19T05:46:15.612Z,13.92
2022-08-19T05:52:07.425Z,14.10
2022-08-19T05:57:11.759Z,14.00
2022-08-19T06:02:16.505Z,14.62
2022-08-19T06:07:20.574Z,14.76
2022-08-19T06:12:30.535Z,14.73
2022-08-19T06:17:36.099Z,14.76
2022-08-19T06:22:45.888Z,15.02
2022-08-19T06:28:13.574Z,14.97
2022-08-19T06:33:11.695Z,14.87
2022-08-19T06:38:14.662Z,14.88
2022-08-19T06:43:18.561Z,14.74
2022-08-19T06:48:21.684Z,14.69
2022-08-19T06:53:44.428Z,14.87
2022-08-19T06:58:53.817Z,15.63
2022-08-19T07:03:57.879Z,16.01
2022-08-19T07:09:01.765Z,16.59
2022-08-19T07:14:19.279Z,16.52
2022-08-19T07:19:23.461Z,16.42
2022-08-19T07:24:31.187Z,16.05
2022-08-19T07:29:39.458Z,15.43
2022-08-19T07:34:42.321Z,15.03
2022-08-19T07:39:45.958Z,14.65
2022-08-19T07:44:50.138Z,14.36
2022-08-19T07:49:53.682Z,14.13
2022-08-19T07:54:56.376Z,14.29
2022-08-19T07:59:59.966Z,15.39
2022-08-19T08:05:21.607Z,16.15
2022-08-19T08:10:30.837Z,17.21
2022-08-19T08:15:35.686Z,18.26
2022-08-19T08:20:43.213Z,18.74
2022-08-19T08:25:46.200Z,17.80
2022-08-19T08:30:54.894Z,16.77
2022-08-19T08:35:58.409Z,16.41
2022-08-19T08:41:15.107Z,16.27
2022-08-19T08:46:32.456Z,16.23
2022-08-19T08:51:37.571Z,16.67
2022-08-19T08:56:42.100Z,16.71
2022-08-19T09:01:47.763Z,16.77
2022-08-19T09:06:56.694Z,16.87
2022-08-19T09:12:12.372Z,17.42
2022-08-19T09:17:16.056Z,17.69
2022-08-19T09:22:25.869Z,17.23
2022-08-19T09:27:41.883Z,16.60
2022-08-19T09:32:54.920Z,16.11
2022-08-19T09:37:59.851Z,16.36
2022-08-19T09:43:09.954Z,16.25
2022-08-19T09:48:19.129Z,16.29
2022-08-19T09:53:39.714Z,16.05
2022-08-19T09:58:45.103Z,16.20
2022-08-19T10:03:54.271Z,16.37
2022-08-19T10:09:02.583Z,16.57
2022-08-19T10:14:29.648Z,16.98
2022-08-19T10:19:38.769Z,17.09
2022-08-19T10:24:46.380Z,17.27
2022-08-19T10:29:54.855Z,17.55
2022-08-19T10:41:16.084Z,18.42
2022-08-19T10:46:23.084Z,18.26
2022-08-19T10:51:47.909Z,18.34
2022-08-19T10:56:54.261Z,18.24
2022-08-19T11:02:04.824Z,17.86
2022-08-19T11:07:11.501Z,17.63
2022-08-19T11:12:15.114Z,17.85
2022-08-19T11:17:18.158Z,17.21
2022-08-19T11:22:23.540Z,16.59
2022-08-19T11:27:35.091Z,16.06
2022-08-19T11:32:40.227Z,15.47
2022-08-19T11:37:43.034Z,15.38
2022-08-19T11:42:58.039Z,15.41
2022-08-19T11:48:00.817Z,15.26
2022-08-19T11:53:03.627Z,15.29
2022-08-19T11:58:18.639Z,15.38
2022-08-19T12:03:25.147Z,15.35
2022-08-19T12:08:28.077Z,15.11
2022-08-19T12:13:31.915Z,14.81
2022-08-19T12:18:37.569Z,14.60
2022-08-19T12:23:40.508Z,14.65
2022-08-19T12:28:43.938Z,14.76
2022-08-19T12:33:47.930Z,14.78
2022-08-19T12:38:50.696Z,14.89
2022-08-19T12:43:53.801Z,14.99
2022-08-19T12:48:58.090Z,15.25
2022-08-19T12:54:02.931Z,15.77
2022-08-19T12:59:26.371Z,16.23
2022-08-19T13:04:48.007Z,16.13
2022-08-19T13:09:53.275Z,16.00
2022-08-19T13:14:57.646Z,15.83
2022-08-19T13:20:01.425Z,15.67
2022-08-19T13:25:07.320Z,15.44
2022-08-19T13:30:30.427Z,14.91
2022-08-19T13:35:35.528Z,14.50
2022-08-19T13:41:25.541Z,14.20
2022-08-19T13:46:40.109Z,13.94
2022-08-19T13:51:48.406Z,13.58
2022-08-19T13:57:00.698Z,13.37
2022-08-19T14:07:25.068Z,13.04
2022-08-19T14:12:28.658Z,13.07
2022-08-19T14:17:32.055Z,13.05
2022-08-19T14:22:36.189Z,12.98
2022-08-19T14:27:40.093Z,12.61
2022-08-19T14:32:44.646Z,12.54
2022-08-19T14:37:47.741Z,12.55
2022-08-19T14:42:50.620Z,12.35
2022-08-19T14:47:53.794Z,12.27
2022-08-19T14:53:08.135Z,12.28
2022-08-19T14:58:29.266Z,12.44
2022-08-19T15:03:33.588Z,12.70
2022-08-19T15:08:38.162Z,12.89
2022-08-19T15:13:40.948Z,12.87
2022-08-19T15:18:46.508Z,12.88
2022-08-19T15:23:52.754Z,12.82
2022-08-19T15:28:55.860Z,12.75
2022-08-19T15:33:59.193Z,12.65
2022-08-19T15:39:02.726Z,12.58
2022-08-19T15:44:09.963Z,12.49
2022-08-19T15:49:14.503Z,12.43
2022-08-19T15:54:22.146Z,12.40
2022-08-19T15:59:47.147Z,12.38
2022-08-19T16:05:10.938Z,12.34
2022-08-19T16:10:26.954Z,12.33
2022-08-19T16:15:31.534Z,12.32
2022-08-19T16:20:35.711Z,12.32
2022-08-19T16:25:39.792Z,12.29
2022-08-19T16:30:48.525Z,12.25
2022-08-19T16:36:00.292Z,12.18
2022-08-19T16:41:10.135Z,12.08
2022-08-19T16:46:13.014Z,12.00
2022-08-19T16:51:23.086Z,11.82
2022-08-19T16:56:26.166Z,11.62
2022-08-19T17:01:29.616Z,11.50
2022-08-19T17:06:32.459Z,11.30
2022-08-19T17:11:36.038Z,11.25
2022-08-19T17:16:39.549Z,11.19
2022-08-19T17:21:45.044Z,11.18
2022-08-19T17:26:47.664Z,11.11
2022-08-19T17:31:50.399Z,10.98
2022-08-19T17:36:57.332Z,10.79
2022-08-19T17:42:03.030Z,10.69
2022-08-19T17:47:06.087Z,10.58
2022-08-19T17:52:10.165Z,10.46
2022-08-19T17:57:14.456Z,10.45
2022-08-19T18:02:21.430Z,10.42
2022-08-19T18:07:24.876Z,10.37
2022-08-19T18:12:27.650Z,10.32
2022-08-19T18:17:30.692Z,10.23
2022-08-19T18:22:39.346Z,10.17
2022-08-19T18:27:43.774Z,10.10
2022-08-19T18:32:49.930Z,9.92
2022-08-19T18:37:52.760Z,9.81
2022-08-19T18:43:14.325Z,9.68
2022-08-19T18:48:35.315Z,9.80
2022-08-19T18:53:39.985Z,9.97
2022-08-19T18:58:43.890Z,10.14
2022-08-19T19:03:53.824Z,10.29
2022-08-19T19:08:57.189Z,10.38
2022-08-19T19:14:04.110Z,10.47
2022-08-19T19:19:13.700Z,10.50
2022-08-19T19:24:20.736Z,10.45
2022-08-19T19:29:24.466Z,10.33
2022-08-19T19:34:29.079Z,10.40
2022-08-19T19:39:46.093Z,10.49
2022-08-19T19:44:51.787Z,10.52
2022-08-19T19:50:14.798Z,10.45
2022-08-19T19:55:18.807Z,10.39
2022-08-19T20:00:22.128Z,10.43
2022-08-19T20:05:25.574Z,10.40
2022-08-19T20:10:28.413Z,10.46
2022-08-19T20:15:32.443Z,10.45
2022-08-19T20:20:35.372Z,10.41
2022-08-19T20:25:38.893Z,10.41
2022-08-19T20:30:46.429Z,10.40
2022-08-19T20:35:50.816Z,10.35
2022-08-19T20:40:53.753Z,10.30
2022-08-19T20:45:56.684Z,10.29
2022-08-19T20:50:59.735Z,10.21
2022-08-19T20:56:02.943Z,10.21
2022-08-19T21:01:06.992Z,10.21
2022-08-19T21:06:11.747Z,10.30
2022-08-19T21:11:16.641Z,10.40
2022-08-19T21:16:23.730Z,10.46
2022-08-19T21:21:26.675Z,10.53
2022-08-19T21:26:29.505Z,10.49
2022-08-19T21:31:32.891Z,10.45
2022-08-19T21:36:35.823Z,10.42
2022-08-19T21:41:43.026Z,10.42
2022-08-19T21:46:50.568Z,10.36
2022-08-19T21:51:56.504Z,10.31
2022-08-19T21:56:59.265Z,10.23
2022-08-19T22:02:15.850Z,10.12
2022-08-19T22:07:22.910Z,9.91
2022-08-19T22:12:33.021Z,9.74
2022-08-19T22:17:36.530Z,9.65
2022-08-19T22:22:40.828Z,9.67
2022-08-19T22:27:43.607Z,9.71
2022-08-19T22:32:56.401Z,9.71
2022-08-19T22:37:59.978Z,9.79
2022-08-19T22:43:12.296Z,9.89
2022-08-19T22:48:17.789Z,10.03
2022-08-19T22:53:20.503Z,10.25
2022-08-19T22:58:28.049Z,10.34
2022-08-19T23:03:31.383Z,10.43
2022-08-19T23:08:34.565Z,10.42
2022-08-19T23:13:41.108Z,10.40
2022-08-19T23:18:44.017Z,10.36
2022-08-19T23:23:46.997Z,10.30
2022-08-19T23:29:07.928Z,10.29
2022-08-19T23:34:10.783Z,10.27
2022-08-19T23:39:13.479Z,10.22
2022-08-19T23:44:16.273Z,10.23
2022-08-19T23:49:21.139Z,10.15
2022-08-19T23:54:43.110Z,10.13
2022-08-19T23:59:46.582Z,10.04
